METAR AND TAF INFORMATION
METAR FOR LTFM
ADDS - METARS form results

(0312 UTC 21 May 2019)
Data provider http://aviationweather.gov/metar/data/
 
METAR text: LTFM 210250Z 19006KT CAVOK 18/14 Q1013 NOSIG RMK RWY17L 20008KT RWY34L 16005KT 130V190 RWY16R 16006KT
Conditions at: LTFM (ISTANBUL HANALI , TR) observed 0250 UTC 21 May 2019
Temperature: 18.0°C (64°F)
Dewpoint: 14.0°C (57°F) [RH = 77%]
Pressure (altimeter): 29.91 inches Hg (1013.0 mb)
Winds: from the S (190 degrees) at 7 MPH (6 knots; 3.1 m/s)
Visibility: 6 or more miles (10+ km)
Ceiling: ceiling and visibility are OK
Clouds: unknown
Weather: no significant weather observed at this time

METAR text: LTFM 210220Z 19008KT CAVOK 18/14 Q1013 NOSIG RMK RWY17L 19007KT RWY34L 20008KT RWY16R 16005KT
Conditions at: LTFM (ISTANBUL HANALI , TR) observed 0220 UTC 21 May 2019
Temperature: 18.0°C (64°F)
Dewpoint: 14.0°C (57°F) [RH = 77%]
Pressure (altimeter): 29.91 inches Hg (1013.0 mb)
Winds: from the S (190 degrees) at 9 MPH (8 knots; 4.1 m/s)
Visibility: 6 or more miles (10+ km)
Ceiling: ceiling and visibility are OK
Clouds: unknown
Weather: no significant weather observed at this time

Forecast for: LTFM (ISTANBUL HANALI , TR)
Text: TAF LTFM 202240Z 2100/2206 22012KT CAVOK
Forecast period: 0000 to 1400 UTC 21 May 2019
Forecast type: FROM: standard forecast or significant change
Winds: from the SW (220 degrees) at 14 MPH (12 knots; 6.2 m/s)
Visibility: 6 or more miles 10+ km)
Ceiling: unknown
Clouds: missing
Weather: NSW  (no significant weather)
Text: TEMPO 2109/2113 22015G25KT
Forecast period: 0900 to 1300 UTC 21 May 2019
Forecast type: TEMPORARY: The following changes expected for less than half the time period
Winds: from the SW (220 degrees) at 17 MPH (15 knots; 7.7 m/s)
gusting to 29 MPH (25 knots; 12.9 m/s)
Visibility: missing
Ceiling: unknown
Clouds: missing
Weather: no significant weather forecast for this period
Text: BECMG 2114/2116 SCT040
Forecast period: 1400 to 1800 UTC 21 May 2019
Forecast type: BECOMING: Conditions expected to become as follows by 1600 UTC 21 May 2019
Winds: from the SW (220 degrees) at 14 MPH (12 knots; 6.2 m/s)
Visibility: 6 or more miles 10+ km)
Ceiling: at least 12,000 feet AGL
Clouds: scattered clouds at 4000 feet AGL
Weather: NSW  (no significant weather)
Text: BECMG 2118/2120 CAVOK
Forecast period: 1800 UTC 21 May 2019 to 0600 UTC 22 May 2019
Forecast type: BECOMING: Conditions expected to become as follows by 2000 UTC 21 May 2019
Winds: from the SW (220 degrees) at 14 MPH (12 knots; 6.2 m/s)
Visibility: 6 or more miles 10+ km)
Ceiling: unknown
Clouds: missing
Weather: NSW  (no significant weather)

 AIRPORT MAP

 RUNWAY INFORMATION

 AIRPORT FREQUENCIES

 AIRPORT NEAR NAVIGATION AIDS



>